Time;durP1;ratioP1;P1;durP2;ratioP2;P2;SDS_P1;SDS_P2;PMS_P1;PMS_P2;Temp;Humidity;BMP_temperature;BMP_pressure;BME280_temperature;BME280_humidity;BME280_pressure;Samples;Min_cycle;Max_cycle;Signal;HPM_P1;HPM_P2
2023/07/19 00:00:59;;;;;;;8.73;4.75;;;21.30;99.90;;;;;;5055426;28;20021;-65
2023/07/19 00:03:25;;;;;;;10.60;4.53;;;21.30;99.90;;;;;;5055362;28;20028;-65
2023/07/19 00:05:51;;;;;;;13.75;5.20;;;21.20;99.90;;;;;;5055718;28;20028;-64
2023/07/19 00:08:16;;;;;;;9.75;4.50;;;21.20;99.90;;;;;;5055550;28;20032;-65
2023/07/19 00:10:42;;;;;;;11.48;5.75;;;21.10;99.90;;;;;;5055298;28;20025;-64
2023/07/19 00:13:08;;;;;;;8.52;4.43;;;21.20;99.90;;;;;;5055476;28;20033;-65
2023/07/19 00:15:34;;;;;;;10.60;4.78;;;21.20;99.90;;;;;;5055429;28;20020;-64
2023/07/19 00:18:00;;;;;;;8.68;4.70;;;21.20;99.90;;;;;;5054414;28;20036;-64
2023/07/19 00:20:26;;;;;;;8.13;4.40;;;21.10;99.90;;;;;;5055330;28;20051;-65
2023/07/19 00:22:52;;;;;;;10.15;5.25;;;21.10;99.90;;;;;;5055200;28;20131;-64
2023/07/19 00:25:18;;;;;;;15.23;4.50;;;21.00;99.90;;;;;;5037267;28;20123;-65
2023/07/19 00:27:45;;;;;;;7.00;4.20;;;21.10;99.90;;;;;;5055281;28;20117;-65
2023/07/19 00:30:11;;;;;;;9.25;4.55;;;21.10;99.90;;;;;;5055204;28;20112;-65
2023/07/19 00:32:37;;;;;;;11.82;5.90;;;20.90;99.90;;;;;;5037147;28;20054;-64
2023/07/19 00:35:03;;;;;;;5.75;4.63;;;21.00;99.90;;;;;;5055063;28;20119;-64
2023/07/19 00:37:29;;;;;;;13.02;4.85;;;20.90;99.90;;;;;;5054923;28;20029;-64
2023/07/19 00:39:55;;;;;;;9.55;4.93;;;20.90;99.90;;;;;;5054841;28;20043;-64
2023/07/19 00:42:21;;;;;;;9.05;4.78;;;20.90;99.90;;;;;;5037011;28;20382;-65
2023/07/19 00:44:48;;;;;;;8.85;4.95;;;20.80;99.90;;;;;;5037097;28;20028;-64
2023/07/19 00:47:14;;;;;;;12.50;4.88;;;20.70;99.90;;;;;;5054793;28;20033;-65
2023/07/19 00:49:42;;;;;;;9.27;5.00;;;20.70;99.90;;;;;;5054721;28;20037;-65
2023/07/19 00:52:08;;;;;;;13.07;5.32;;;20.70;99.90;;;;;;5060607;28;20030;-64
2023/07/19 00:54:36;;;;;;;10.23;5.18;;;20.60;99.90;;;;;;5074725;28;20038;-65
2023/07/19 00:57:04;;;;;;;10.45;6.15;;;20.70;99.90;;;;;;5056492;28;20024;-65
2023/07/19 00:59:31;;;;;;;8.13;5.45;;;20.60;99.90;;;;;;5054510;28;20049;-64
2023/07/19 01:01:58;;;;;;;11.48;5.30;;;20.60;99.90;;;;;;5054900;28;20021;-65
2023/07/19 01:04:27;;;;;;;11.52;5.05;;;20.60;99.90;;;;;;5036824;28;20075;-65
2023/07/19 01:06:53;;;;;;;8.05;5.20;;;20.60;99.90;;;;;;5036772;28;20477;-65
2023/07/19 01:09:20;;;;;;;10.38;5.43;;;20.40;99.90;;;;;;5036615;28;20068;-65
2023/07/19 01:11:45;;;;;;;13.05;5.90;;;20.40;99.90;;;;;;5054452;28;20025;-65
2023/07/19 01:14:12;;;;;;;11.77;5.82;;;20.40;99.90;;;;;;5054452;28;20044;-65
2023/07/19 01:16:38;;;;;;;9.55;5.03;;;20.30;99.90;;;;;;5036479;28;20029;-65
2023/07/19 01:19:05;;;;;;;10.23;5.00;;;20.20;99.90;;;;;;5054334;28;20021;-65
2023/07/19 01:21:30;;;;;;;12.38;5.93;;;20.20;99.90;;;;;;5054350;28;20158;-65
2023/07/19 01:23:56;;;;;;;11.82;5.57;;;20.10;99.90;;;;;;5054403;28;20063;-65
2023/07/19 01:26:22;;;;;;;10.77;5.75;;;20.10;99.90;;;;;;5036504;28;20098;-65
2023/07/19 01:28:48;;;;;;;10.43;5.95;;;20.10;99.90;;;;;;5054056;28;20025;-65
2023/07/19 01:31:17;;;;;;;7.72;5.55;;;20.10;99.90;;;;;;5054286;28;20553;-65
2023/07/19 01:33:44;;;;;;;10.93;5.97;;;20.10;99.90;;;;;;5054028;28;20025;-65
2023/07/19 01:36:11;;;;;;;8.27;5.43;;;20.10;99.90;;;;;;5054178;28;20056;-65
2023/07/19 01:38:38;;;;;;;10.10;5.90;;;20.10;99.90;;;;;;5036486;28;20121;-65
2023/07/19 01:41:05;;;;;;;9.98;6.38;;;20.10;99.90;;;;;;5053971;28;20284;-65
2023/07/19 01:43:31;;;;;;;7.22;5.82;;;20.10;99.90;;;;;;5036425;28;20029;-65
2023/07/19 01:45:58;;;;;;;10.32;6.15;;;20.10;99.90;;;;;;5054244;28;20111;-64
2023/07/19 01:48:24;;;;;;;7.95;5.70;;;20.10;99.90;;;;;;5053999;28;20487;-65
2023/07/19 01:50:50;;;;;;;15.85;6.22;;;20.10;99.90;;;;;;5053896;28;20061;-65
2023/07/19 01:53:16;;;;;;;10.15;6.35;;;20.10;99.90;;;;;;5069375;28;20035;-65
2023/07/19 01:55:42;;;;;;;11.25;6.00;;;20.10;99.90;;;;;;5066890;28;20471;-65
2023/07/19 01:58:09;;;;;;;10.50;5.93;;;20.20;99.90;;;;;;5035638;28;20045;-65
2023/07/19 02:00:35;;;;;;;10.52;7.22;;;20.10;99.90;;;;;;5036287;28;20029;-65
2023/07/19 02:03:01;;;;;;;14.27;7.50;;;20.10;99.90;;;;;;5036180;28;20036;-65
2023/07/19 02:05:28;;;;;;;17.13;7.07;;;20.10;99.90;;;;;;5035801;28;20033;-64
2023/07/19 02:07:54;;;;;;;12.02;6.47;;;20.10;99.90;;;;;;5053912;28;20086;-65
2023/07/19 02:10:20;;;;;;;11.95;6.55;;;20.10;99.90;;;;;;5053563;28;20025;-65
2023/07/19 02:12:46;;;;;;;14.95;6.55;;;20.00;99.90;;;;;;5035995;28;20071;-65
2023/07/19 02:15:12;;;;;;;12.45;6.72;;;20.00;99.90;;;;;;5053600;28;20052;-65
2023/07/19 02:17:38;;;;;;;9.40;6.47;;;19.90;99.90;;;;;;5035871;28;20060;-65
2023/07/19 02:20:05;;;;;;;18.70;6.80;;;19.80;99.90;;;;;;5053903;28;20029;-65
2023/07/19 02:22:31;;;;;;;13.48;7.05;;;19.80;99.90;;;;;;5035737;28;20091;-65
2023/07/19 02:24:57;;;;;;;13.15;6.35;;;19.80;99.90;;;;;;5053589;28;20036;-65
2023/07/19 02:27:23;;;;;;;10.80;6.50;;;19.70;99.90;;;;;;5053773;28;20029;-65
2023/07/19 02:29:49;;;;;;;8.75;6.45;;;19.60;99.90;;;;;;5053522;28;20040;-65
2023/07/19 02:32:15;;;;;;;12.82;7.00;;;19.60;99.90;;;;;;5035721;28;20512;-65
2023/07/19 02:34:40;;;;;;;11.02;6.72;;;19.60;99.90;;;;;;5035642;28;20040;-65
2023/07/19 02:37:06;;;;;;;12.93;7.25;;;19.60;99.90;;;;;;5035511;28;20483;-65
2023/07/19 02:39:32;;;;;;;16.38;7.53;;;19.50;99.90;;;;;;5035487;28;20025;-65
2023/07/19 02:41:58;;;;;;;13.75;6.75;;;19.50;99.90;;;;;;5038505;28;20036;-65
2023/07/19 02:44:24;;;;;;;16.45;7.22;;;19.50;99.90;;;;;;5057155;28;20021;-65
2023/07/19 02:46:50;;;;;;;13.80;7.97;;;19.50;99.90;;;;;;5039250;28;20597;-65
2023/07/19 02:49:16;;;;;;;14.98;7.43;;;19.50;99.90;;;;;;5039056;28;20037;-65
2023/07/19 02:51:43;;;;;;;16.00;7.65;;;19.40;99.90;;;;;;5059490;28;20483;-65
2023/07/19 02:54:09;;;;;;;13.27;7.20;;;19.40;99.90;;;;;;5076881;28;20195;-65
2023/07/19 02:56:35;;;;;;;15.50;7.85;;;19.40;99.90;;;;;;5044392;28;20089;-65
2023/07/19 02:59:02;;;;;;;15.85;7.72;;;19.40;99.90;;;;;;5022378;28;20547;-65
2023/07/19 03:01:30;;;;;;;12.45;7.03;;;19.40;99.90;;;;;;5038877;28;20036;-65
2023/07/19 03:03:57;;;;;;;18.33;7.70;;;19.30;99.90;;;;;;5038823;28;20025;-65
2023/07/19 03:06:23;;;;;;;9.68;7.47;;;19.40;99.90;;;;;;5038730;28;20025;-65
2023/07/19 03:08:49;;;;;;;12.90;7.90;;;19.30;99.90;;;;;;5056557;28;20025;-65
2023/07/19 03:11:15;;;;;;;10.55;7.60;;;19.40;99.90;;;;;;5038603;28;20032;-65
2023/07/19 03:13:41;;;;;;;13.75;8.45;;;19.40;99.90;;;;;;5022168;28;20487;-65
2023/07/19 03:16:07;;;;;;;11.73;7.95;;;19.50;99.90;;;;;;5056429;28;20036;-65
2023/07/19 03:18:33;;;;;;;13.27;7.95;;;19.60;99.90;;;;;;5056510;28;20036;-65
2023/07/19 03:21:00;;;;;;;14.20;8.23;;;19.50;99.90;;;;;;5056424;28;20021;-66
2023/07/19 03:23:27;;;;;;;14.73;8.43;;;19.40;99.90;;;;;;5056271;28;20035;-66
2023/07/19 03:25:57;;;;;;;11.75;7.53;;;19.40;99.90;;;;;;5056192;28;20017;-65
2023/07/19 03:28:25;;;;;;;15.95;7.95;;;19.40;99.90;;;;;;5038402;28;20537;-66
2023/07/19 03:30:54;;;;;;;22.83;8.10;;;19.40;99.90;;;;;;5056304;28;20116;-65
2023/07/19 03:33:23;;;;;;;15.35;8.43;;;19.40;99.90;;;;;;5056263;28;20056;-65
2023/07/19 03:35:51;;;;;;;10.52;7.50;;;19.40;99.90;;;;;;5038083;28;20380;-65
2023/07/19 03:38:21;;;;;;;20.10;8.45;;;19.40;99.90;;;;;;5038319;28;20395;-66
2023/07/19 03:40:50;;;;;;;14.10;7.45;;;19.30;99.90;;;;;;5038138;28;20394;-66
2023/07/19 03:43:16;;;;;;;12.30;7.53;;;19.30;99.90;;;;;;5038620;28;20060;-65
2023/07/19 03:45:42;;;;;;;10.38;8.05;;;19.40;99.90;;;;;;5038155;28;20035;-65
2023/07/19 03:48:08;;;;;;;15.27;8.15;;;19.40;99.90;;;;;;5037895;28;20025;-65
2023/07/19 03:50:36;;;;;;;27.27;8.35;;;19.40;99.90;;;;;;5038099;28;20048;-66
2023/07/19 03:53:04;;;;;;;18.40;9.02;;;19.50;99.90;;;;;;5050562;28;20041;-65
2023/07/19 03:55:31;;;;;;;15.93;8.68;;;19.40;99.90;;;;;;5052553;28;20071;-66
2023/07/19 03:57:57;;;;;;;18.30;7.97;;;19.40;99.90;;;;;;5037700;28;20554;-65
2023/07/19 04:00:23;;;;;;;13.73;8.52;;;19.50;99.90;;;;;;5021465;28;20118;-65
2023/07/19 04:02:50;;;;;;;14.75;9.25;;;19.40;99.90;;;;;;5037608;28;20478;-65
2023/07/19 04:05:17;;;;;;;14.68;8.65;;;19.50;99.90;;;;;;5037703;28;20029;-66
2023/07/19 04:07:43;;;;;;;16.02;8.57;;;19.60;99.90;;;;;;5037952;28;20056;-66
2023/07/19 04:10:11;;;;;;;20.83;9.30;;;19.70;99.90;;;;;;5037947;28;20047;-66
2023/07/19 04:12:37;;;;;;;12.80;8.68;;;19.70;99.90;;;;;;5055440;28;20143;-66
2023/07/19 04:15:03;;;;;;;15.20;8.93;;;19.80;99.90;;;;;;5055509;28;20107;-65
2023/07/19 04:17:29;;;;;;;15.85;9.35;;;19.80;99.90;;;;;;5037313;28;20029;-65
2023/07/19 04:19:55;;;;;;;18.85;12.02;;;19.90;99.90;;;;;;5037540;28;20483;-65
2023/07/19 04:22:21;;;;;;;13.50;8.70;;;19.90;99.90;;;;;;5037453;28;20083;-65
2023/07/19 04:24:47;;;;;;;19.00;9.75;;;19.90;99.90;;;;;;5055282;28;20045;-65
2023/07/19 04:27:13;;;;;;;17.77;10.15;;;19.90;99.90;;;;;;5055198;28;20422;-65
2023/07/19 04:29:39;;;;;;;16.58;9.23;;;19.90;99.90;;;;;;5037375;28;20132;-65
2023/07/19 04:32:07;;;;;;;13.93;8.65;;;20.00;99.90;;;;;;5037158;28;20399;-65
2023/07/19 04:34:33;;;;;;;21.38;9.70;;;20.00;99.90;;;;;;5055039;28;20028;-65
2023/07/19 04:36:59;;;;;;;17.58;10.38;;;20.00;99.90;;;;;;5037084;28;20037;-65
2023/07/19 04:39:26;;;;;;;22.48;9.32;;;20.10;99.90;;;;;;5036907;28;20036;-65
2023/07/19 04:41:52;;;;;;;18.27;9.73;;;20.10;99.90;;;;;;5036832;28;20391;-65
2023/07/19 04:44:18;;;;;;;15.98;9.02;;;20.20;99.90;;;;;;5036956;28;20052;-65
2023/07/19 04:46:44;;;;;;;19.95;11.00;;;20.10;99.90;;;;;;5036780;28;20033;-65
2023/07/19 04:49:10;;;;;;;20.55;10.75;;;20.20;99.90;;;;;;5036912;28;20446;-65
2023/07/19 04:51:36;;;;;;;19.40;9.85;;;20.40;99.90;;;;;;5038223;28;20029;-65
2023/07/19 04:54:02;;;;;;;16.77;9.75;;;20.40;99.90;;;;;;5056696;28;20028;-65
2023/07/19 04:56:30;;;;;;;21.13;8.98;;;20.50;99.90;;;;;;5043114;28;20035;-65
2023/07/19 04:58:56;;;;;;;17.88;9.38;;;20.60;99.90;;;;;;5036736;28;20041;-65
2023/07/19 05:01:22;;;;;;;15.18;8.23;;;20.70;99.90;;;;;;5054448;28;20051;-65
2023/07/19 05:03:48;;;;;;;15.32;8.95;;;20.80;99.90;;;;;;5036325;28;20025;-65
2023/07/19 05:06:14;;;;;;;16.60;8.57;;;20.80;99.90;;;;;;5036539;28;20025;-65
2023/07/19 05:08:42;;;;;;;14.93;8.90;;;20.80;99.90;;;;;;5054374;28;20032;-65
2023/07/19 05:11:08;;;;;;;16.73;9.48;;;20.90;99.90;;;;;;5036364;28;20058;-65
2023/07/19 05:13:34;;;;;;;16.15;9.25;;;21.00;99.90;;;;;;5054354;28;20021;-65
2023/07/19 05:16:01;;;;;;;23.00;8.95;;;21.00;99.90;;;;;;5036509;28;20025;-65
2023/07/19 05:18:27;;;;;;;20.77;9.75;;;21.00;99.90;;;;;;5020171;28;20044;-65
2023/07/19 05:20:53;;;;;;;16.08;8.20;;;21.10;99.90;;;;;;5036847;28;20021;-65
2023/07/19 05:23:20;;;;;;;18.05;9.73;;;21.10;99.90;;;;;;5050421;28;20406;-65
2023/07/19 05:25:47;;;;;;;16.40;8.75;;;21.20;99.90;;;;;;5056438;28;20028;-65
2023/07/19 05:28:13;;;;;;;18.90;9.50;;;21.30;99.90;;;;;;5075306;28;20371;-65
2023/07/19 05:30:39;;;;;;;21.98;8.70;;;21.30;99.90;;;;;;5054371;28;20040;-65
2023/07/19 05:33:06;;;;;;;18.48;8.27;;;21.30;99.90;;;;;;5073594;28;20450;-65
2023/07/19 05:35:32;;;;;;;19.55;8.45;;;21.50;99.90;;;;;;5055921;28;20052;-65
2023/07/19 05:37:58;;;;;;;17.30;8.75;;;21.50;99.90;;;;;;5054983;28;20087;-65
2023/07/19 05:40:25;;;;;;;15.43;9.40;;;21.60;99.90;;;;;;5073512;28;20094;-65
2023/07/19 05:42:51;;;;;;;16.52;8.23;;;21.80;99.90;;;;;;5055232;28;20032;-65
2023/07/19 05:45:18;;;;;;;20.92;9.50;;;21.80;99.90;;;;;;5085024;28;20112;-65
2023/07/19 05:47:44;;;;;;;11.57;8.25;;;22.00;99.90;;;;;;5094413;28;20154;-65
2023/07/19 05:50:10;;;;;;;13.02;8.13;;;22.10;99.90;;;;;;5094020;28;20495;-65
2023/07/19 05:52:37;;;;;;;19.40;9.30;;;22.10;99.90;;;;;;5067987;28;20071;-65
2023/07/19 05:55:03;;;;;;;16.08;8.40;;;22.10;99.90;;;;;;5065246;28;20025;-66
2023/07/19 05:57:30;;;;;;;14.20;8.48;;;22.20;99.90;;;;;;5066746;28;20048;-65
2023/07/19 06:00:01;;;;;;;12.70;7.72;;;22.30;99.90;;;;;;5054021;28;20103;-65
2023/07/19 06:02:27;;;;;;;16.73;7.97;;;22.30;99.90;;;;;;5035834;28;20491;-66
2023/07/19 06:04:53;;;;;;;14.07;8.85;;;22.40;99.90;;;;;;5078018;28;20052;-65
2023/07/19 06:07:19;;;;;;;13.55;8.07;;;22.60;99.90;;;;;;5093935;28;20103;-65
2023/07/19 06:09:45;;;;;;;17.20;8.13;;;22.70;99.90;;;;;;5076080;28;20030;-65
2023/07/19 06:12:10;;;;;;;16.77;8.07;;;22.80;99.90;;;;;;5093935;28;20120;-65
2023/07/19 06:14:37;;;;;;;15.65;7.53;;;22.60;99.90;;;;;;5085927;28;20115;-65
2023/07/19 06:17:03;;;;;;;14.18;7.10;;;22.60;99.90;;;;;;5053281;28;20540;-65
2023/07/19 06:19:29;;;;;;;19.25;7.95;;;22.90;99.90;;;;;;5066171;28;20013;-65
2023/07/19 06:21:55;;;;;;;12.25;7.43;;;23.10;99.90;;;;;;5089235;28;20055;-65
2023/07/19 06:24:21;;;;;;;14.15;7.40;;;23.10;99.90;;;;;;5098110;28;20076;-65
2023/07/19 06:26:47;;;;;;;14.52;7.68;;;23.30;99.90;;;;;;5095785;28;20054;-65
2023/07/19 06:29:12;;;;;;;8.82;5.95;;;23.50;99.90;;;;;;5062987;28;20029;-65
2023/07/19 06:31:38;;;;;;;10.73;6.70;;;23.60;99.90;;;;;;5058016;28;20545;-65
2023/07/19 06:34:04;;;;;;;16.58;7.80;;;23.70;99.90;;;;;;5071678;28;20029;-65
2023/07/19 06:36:30;;;;;;;15.48;8.02;;;23.90;99.90;;;;;;5079327;28;20024;-65
2023/07/19 06:38:56;;;;;;;15.63;7.30;;;24.00;99.90;;;;;;5092072;28;20391;-65
2023/07/19 06:41:22;;;;;;;12.48;6.22;;;24.10;99.90;;;;;;5085322;28;20024;-65
2023/07/19 06:43:47;;;;;;;8.43;6.03;;;24.30;99.90;;;;;;5076197;28;20420;-65
2023/07/19 06:46:13;;;;;;;13.48;6.40;;;24.50;99.90;;;;;;5070049;28;20060;-65
2023/07/19 06:48:40;;;;;;;16.77;6.72;;;24.70;99.90;;;;;;5056839;28;20035;-65
2023/07/19 06:51:06;;;;;;;17.50;7.80;;;24.80;99.90;;;;;;5086336;28;20551;-65
2023/07/19 06:53:32;;;;;;;16.63;6.63;;;24.90;99.90;;;;;;5068044;28;20057;-65
2023/07/19 06:56:01;;;;;;;15.45;6.63;;;24.90;99.90;;;;;;5065995;28;20064;-65
2023/07/19 06:58:27;;;;;;;15.73;7.32;;;25.10;99.90;;;;;;5076670;28;20044;-65
2023/07/19 07:00:56;;;;;;;22.38;7.72;;;25.40;99.90;;;;;;5075953;28;20417;-65
2023/07/19 07:03:22;;;;;;;13.82;6.38;;;25.60;99.90;;;;;;5076702;28;20042;-65
2023/07/19 07:05:49;;;;;;;13.75;6.93;;;25.80;99.90;;;;;;5076851;28;20052;-65
2023/07/19 07:08:15;;;;;;;15.82;6.78;;;26.00;99.90;;;;;;5076689;28;20029;-66
2023/07/19 07:10:42;;;;;;;12.15;6.50;;;26.00;99.90;;;;;;5076549;28;20029;-65
2023/07/19 07:13:09;;;;;;;16.17;7.35;;;25.80;99.90;;;;;;5076703;28;20028;-66
2023/07/19 07:15:35;;;;;;;11.13;6.55;;;25.90;99.90;;;;;;5058783;28;20477;-65
2023/07/19 07:18:01;;;;;;;11.77;7.10;;;26.10;98.30;;;;;;5075037;28;20028;-66
2023/07/19 07:20:27;;;;;;;13.82;7.32;;;26.40;99.20;;;;;;5077208;28;20116;-65
2023/07/19 07:22:55;;;;;;;12.60;6.65;;;26.70;97.50;;;;;;5077022;28;20025;-66
2023/07/19 07:25:21;;;;;;;14.60;7.55;;;27.20;97.70;;;;;;5075615;28;20078;-65
2023/07/19 07:27:47;;;;;;;13.57;6.63;;;27.60;96.20;;;;;;5076806;28;20028;-65
2023/07/19 07:30:13;;;;;;;9.75;5.47;;;27.60;94.00;;;;;;5076894;28;20036;-66
2023/07/19 07:32:40;;;;;;;8.70;6.30;;;27.60;93.30;;;;;;5076803;28;20140;-65
2023/07/19 07:35:06;;;;;;;9.68;6.03;;;27.90;95.00;;;;;;5076783;28;20032;-66
2023/07/19 07:37:32;;;;;;;12.15;6.95;;;28.20;91.90;;;;;;5076832;28;20036;-66
2023/07/19 07:40:08;;;;;;;12.00;6.68;;;28.30;92.60;;;;;;5076949;28;20474;-65
2023/07/19 07:42:35;;;;;;;13.75;7.63;;;28.50;91.00;;;;;;5076862;28;20054;-66
2023/07/19 07:45:01;;;;;;;10.38;6.32;;;28.90;94.40;;;;;;5053057;28;20420;-65
2023/07/19 07:47:27;;;;;;;14.15;6.93;;;29.10;92.20;;;;;;5075017;28;20032;-66
2023/07/19 07:49:54;;;;;;;10.80;6.63;;;29.30;92.20;;;;;;5076545;28;20048;-65
2023/07/19 07:52:20;;;;;;;11.25;5.97;;;29.40;88.80;;;;;;5071768;28;20107;-65
2023/07/19 07:54:46;;;;;;;11.55;5.50;;;29.60;89.20;;;;;;5059303;28;20037;-66
2023/07/19 07:57:12;;;;;;;9.93;5.80;;;29.70;81.20;;;;;;5088671;28;20377;-66
2023/07/19 07:59:38;;;;;;;12.70;6.35;;;29.80;84.60;;;;;;5095884;28;20032;-65
2023/07/19 08:02:04;;;;;;;12.32;5.05;;;30.30;82.10;;;;;;5096068;28;20073;-65
2023/07/19 08:04:30;;;;;;;11.10;5.65;;;30.30;74.40;;;;;;5077495;28;20055;-65
2023/07/19 08:06:59;;;;;;;11.70;5.75;;;30.80;76.80;;;;;;5069424;28;20525;-65
2023/07/19 08:09:25;;;;;;;9.20;5.38;;;30.40;74.70;;;;;;5066512;28;20032;-65
2023/07/19 08:11:51;;;;;;;9.82;5.18;;;30.60;76.70;;;;;;5055210;28;20035;-65
2023/07/19 08:14:19;;;;;;;11.38;5.30;;;30.80;71.50;;;;;;5055165;28;20032;-65
2023/07/19 08:16:47;;;;;;;9.98;5.38;;;31.20;68.60;;;;;;5055314;28;20398;-65
2023/07/19 08:19:13;;;;;;;8.80;5.47;;;31.50;67.10;;;;;;5066446;28;20032;-65
2023/07/19 08:21:39;;;;;;;11.48;5.38;;;31.80;64.40;;;;;;5060342;28;20027;-65
2023/07/19 08:24:05;;;;;;;6.82;5.25;;;31.90;65.80;;;;;;5095300;28;20570;-65
2023/07/19 08:26:31;;;;;;;9.82;5.47;;;32.10;66.60;;;;;;5069766;28;20033;-65
2023/07/19 08:28:57;;;;;;;10.00;4.75;;;32.10;62.30;;;;;;5095155;28;20032;-65
2023/07/19 08:31:23;;;;;;;15.13;5.90;;;32.10;61.50;;;;;;5095366;28;20027;-65
2023/07/19 08:33:50;;;;;;;10.15;5.22;;;32.00;65.20;;;;;;5076695;28;20029;-65
2023/07/19 08:36:15;;;;;;;7.70;5.13;;;32.20;59.50;;;;;;5051243;28;20024;-65
2023/07/19 08:38:41;;;;;;;13.35;5.55;;;32.20;59.70;;;;;;5059824;28;20099;-65
2023/07/19 08:41:11;;;;;;;20.65;6.63;;;32.40;61.30;;;;;;5054802;28;20359;-65
2023/07/19 08:43:37;;;;;;;10.80;5.67;;;32.20;58.10;;;;;;5090776;28;20016;-65
2023/07/19 08:46:03;;;;;;;11.27;5.20;;;32.50;58.10;;;;;;5095092;28;20264;-65
2023/07/19 08:48:34;;;;;;;16.98;6.40;;;32.80;59.40;;;;;;5095005;28;20552;-65
2023/07/19 08:51:01;;;;;;;9.85;5.63;;;33.00;58.30;;;;;;5095162;28;20416;-65
2023/07/19 08:53:27;;;;;;;13.35;5.40;;;33.20;58.70;;;;;;5077052;28;20170;-65
2023/07/19 08:55:54;;;;;;;12.30;5.45;;;33.40;58.10;;;;;;5072462;28;20032;-65
2023/07/19 08:58:20;;;;;;;13.52;5.70;;;33.00;55.70;;;;;;5068597;28;20045;-65
2023/07/19 09:00:48;;;;;;;14.73;6.03;;;33.60;57.90;;;;;;5066068;28;20025;-65
2023/07/19 09:03:15;;;;;;;10.68;5.53;;;33.30;56.10;;;;;;5074171;28;20024;-65
2023/07/19 09:05:41;;;;;;;10.88;5.40;;;33.70;54.10;;;;;;5074440;28;20024;-65
2023/07/19 09:08:20;;;;;;;;;;;;;;;;;;;;;
2023/07/19 09:10:52;;;;;;;11.27;5.35;;;32.90;54.10;;;;;;5045422;28;20037;-65
2023/07/19 09:13:19;;;;;;;19.45;6.68;;;33.70;52.20;;;;;;5054583;28;20029;-65
2023/07/19 09:15:48;;;;;;;13.63;5.72;;;34.00;51.50;;;;;;5083137;28;20016;-65
2023/07/19 09:18:14;;;;;;;12.45;5.60;;;34.20;51.50;;;;;;5095309;28;20058;-65
2023/07/19 09:20:40;;;;;;;16.20;6.22;;;34.30;53.90;;;;;;5078850;28;20032;-65
2023/07/19 09:23:06;;;;;;;16.80;6.75;;;34.30;52.20;;;;;;5079138;28;20374;-65
2023/07/19 09:25:33;;;;;;;15.45;6.07;;;34.50;52.10;;;;;;5095195;28;20028;-65
2023/07/19 09:28:07;;;;;;;15.25;5.00;;;34.30;50.50;;;;;;5094688;28;20028;-65
2023/07/19 09:30:33;;;;;;;16.73;5.75;;;34.80;52.00;;;;;;5076428;28;20032;-65
2023/07/19 09:33:00;;;;;;;11.75;5.70;;;34.50;50.00;;;;;;5081046;28;20482;-65
2023/07/19 09:35:29;;;;;;;15.60;6.50;;;34.80;47.60;;;;;;5074129;28;20775;-65
2023/07/19 09:37:59;;;;;;;17.00;6.57;;;34.40;46.20;;;;;;5071568;28;20030;-65
2023/07/19 09:40:32;;;;;;;13.68;6.07;;;35.00;47.00;;;;;;5062833;28;20374;-65
2023/07/19 09:42:59;;;;;;;16.10;6.22;;;34.70;44.60;;;;;;5072889;28;20115;-65
2023/07/19 09:45:32;;;;;;;14.23;5.45;;;35.00;46.70;;;;;;5069349;28;20021;-65
2023/07/19 09:47:59;;;;;;;14.60;5.05;;;35.60;48.50;;;;;;5073647;28;20027;-65
2023/07/19 09:50:27;;;;;;;12.57;5.38;;;35.70;44.20;;;;;;5082216;28;20408;-65
2023/07/19 09:52:56;;;;;;;13.85;4.72;;;36.00;50.00;;;;;;5081925;28;20029;-66
2023/07/19 09:55:22;;;;;;;10.85;4.25;;;36.00;42.10;;;;;;5071670;28;20125;-65
2023/07/19 09:57:50;;;;;;;9.95;4.82;;;35.90;36.70;;;;;;5073984;28;20120;-65
2023/07/19 10:00:16;;;;;;;8.63;4.00;;;36.10;38.20;;;;;;5063952;28;20024;-65
2023/07/19 10:02:43;;;;;;;7.85;4.22;;;36.70;41.40;;;;;;5063632;28;20028;-63
2023/07/19 10:05:09;;;;;;;13.40;4.93;;;36.60;41.60;;;;;;5069045;28;20064;-63
2023/07/19 10:07:36;;;;;;;10.48;4.32;;;36.70;42.00;;;;;;5079061;28;20035;-63
2023/07/19 10:10:04;;;;;;;19.60;6.32;;;36.80;39.20;;;;;;5065203;28;20120;-63
2023/07/19 10:12:31;;;;;;;7.40;3.95;;;36.70;41.20;;;;;;5077549;28;20020;-63
2023/07/19 10:15:08;;;;;;;10.40;4.03;;;36.60;38.20;;;;;;5077433;28;20032;-63
2023/07/19 10:17:55;;;;;;;8.40;3.90;;;37.00;39.30;;;;;;5078577;28;20332;-63
2023/07/19 10:20:24;;;;;;;7.32;3.25;;;36.80;43.10;;;;;;5091549;28;20026;-63
2023/07/19 10:22:59;;;;;;;7.45;3.47;;;36.70;35.50;;;;;;5072459;28;20059;-63
2023/07/19 10:25:44;;;;;;;8.52;3.70;;;37.30;36.90;;;;;;5097755;28;20028;-63
2023/07/19 10:28:12;;;;;;;8.15;3.30;;;37.20;36.90;;;;;;5082209;28;20033;-63
2023/07/19 10:30:44;;;;;;;11.77;3.78;;;37.20;34.10;;;;;;5068428;28;20116;-63
2023/07/19 10:33:11;;;;;;;10.38;3.58;;;37.70;35.40;;;;;;5079198;28;20050;-63
2023/07/19 10:35:37;;;;;;;6.30;3.45;;;37.50;35.60;;;;;;5069217;28;20020;-63
2023/07/19 10:38:03;;;;;;;8.77;3.40;;;37.70;38.20;;;;;;5090471;28;20042;-63
2023/07/19 10:40:29;;;;;;;9.63;3.72;;;37.80;35.70;;;;;;5083371;28;20029;-63
2023/07/19 10:42:55;;;;;;;10.30;4.22;;;38.00;32.40;;;;;;5056815;28;20033;-63
2023/07/19 10:45:26;;;;;;;8.52;3.63;;;37.90;33.00;;;;;;5057260;28;20083;-63
2023/07/19 10:47:52;;;;;;;10.88;3.30;;;37.90;33.00;;;;;;5055904;28;20025;-63
2023/07/19 10:50:18;;;;;;;7.93;3.35;;;38.10;31.90;;;;;;5056835;28;20031;-63
2023/07/19 10:52:47;;;;;;;7.15;3.58;;;38.40;33.50;;;;;;5057033;28;20029;-63
2023/07/19 10:55:13;;;;;;;7.03;2.83;;;38.30;34.80;;;;;;5059599;28;20020;-63
2023/07/19 10:57:42;;;;;;;7.10;3.08;;;38.40;30.80;;;;;;5068921;28;20045;-63
2023/07/19 11:00:15;;;;;;;10.48;3.28;;;38.70;29.20;;;;;;5068324;28;20050;-63
2023/07/19 11:02:42;;;;;;;7.68;3.47;;;38.80;28.40;;;;;;5075517;28;20034;-63
2023/07/19 11:05:09;;;;;;;6.75;3.17;;;38.90;29.40;;;;;;5090763;28;20039;-63
2023/07/19 11:07:36;;;;;;;9.48;2.97;;;38.60;29.60;;;;;;5086578;28;20055;-63
2023/07/19 11:10:03;;;;;;;6.68;3.20;;;38.60;30.30;;;;;;5072836;28;20033;-63
2023/07/19 11:12:30;;;;;;;6.50;3.65;;;38.90;29.70;;;;;;5084726;28;20107;-63
2023/07/19 11:14:58;;;;;;;9.13;3.63;;;38.80;29.00;;;;;;5076630;28;20036;-63
2023/07/19 11:17:28;;;;;;;9.75;4.30;;;38.80;29.50;;;;;;5080292;28;20042;-63
2023/07/19 11:19:55;;;;;;;11.60;4.43;;;38.60;30.00;;;;;;5066649;28;20029;-63
2023/07/19 11:22:22;;;;;;;8.50;3.78;;;38.60;30.40;;;;;;5075164;28;20121;-63
2023/07/19 11:24:51;;;;;;;10.07;3.85;;;38.80;33.10;;;;;;5073225;28;20398;-63
2023/07/19 11:27:21;;;;;;;10.43;4.18;;;39.00;31.30;;;;;;5063716;28;20323;-63
2023/07/19 11:29:50;;;;;;;;;;;39.10;33.40;;;;;;5056232;28;20040;-63
2023/07/19 11:32:23;;;;;;;10.20;4.77;;;38.60;32.30;;;;;;5093218;28;19965;-63
2023/07/19 11:34:51;;;;;;;15.40;4.90;;;38.10;34.30;;;;;;5079748;28;20043;-63
2023/07/19 11:37:17;;;;;;;7.40;3.67;;;37.90;33.90;;;;;;5071003;28;20165;-63
2023/07/19 11:39:43;;;;;;;12.38;4.15;;;38.10;30.80;;;;;;5082933;28;20032;-63
2023/07/19 11:42:10;;;;;;;8.10;3.80;;;38.40;31.40;;;;;;5062506;28;20028;-63
2023/07/19 11:44:44;;;;;;;6.93;3.45;;;38.60;33.50;;;;;;5055695;28;20378;-63
2023/07/19 11:47:10;;;;;;;12.32;4.00;;;38.80;30.50;;;;;;5079118;28;20032;-64
2023/07/19 11:49:36;;;;;;;10.75;3.60;;;38.30;30.50;;;;;;5096322;28;20028;-65
2023/07/19 11:52:02;;;;;;;11.10;4.68;;;38.20;32.90;;;;;;5090420;28;20135;-64
2023/07/19 11:54:28;;;;;;;10.52;3.72;;;38.70;34.80;;;;;;5064857;28;20044;-65
2023/07/19 11:56:54;;;;;;;12.73;4.53;;;39.00;30.00;;;;;;5073014;28;20020;-64
2023/07/19 11:59:23;;;;;;;11.23;5.07;;;38.40;30.40;;;;;;5076248;28;20055;-65
2023/07/19 12:01:49;;;;;;;8.90;3.45;;;38.80;30.60;;;;;;5067230;28;20024;-65
2023/07/19 12:04:15;;;;;;;11.20;4.03;;;39.00;30.10;;;;;;5056293;28;20036;-65
2023/07/19 12:06:41;;;;;;;9.40;3.92;;;39.40;31.00;;;;;;5055719;28;20045;-65
2023/07/19 12:09:09;;;;;;;11.48;4.22;;;39.20;30.20;;;;;;5060083;28;20025;-67
2023/07/19 12:11:35;;;;;;;9.98;3.75;;;39.30;28.50;;;;;;5061598;28;20027;-66
2023/07/19 12:14:02;;;;;;;11.57;4.55;;;38.10;30.10;;;;;;5071198;28;20081;-65
2023/07/19 12:16:33;;;;;;;9.77;3.83;;;37.90;29.70;;;;;;5060258;28;20378;-65
2023/07/19 12:19:00;;;;;;;10.30;4.50;;;37.70;31.20;;;;;;5055959;28;20052;-65
2023/07/19 12:21:26;;;;;;;10.65;5.07;;;38.40;31.20;;;;;;5055076;28;20068;-65
2023/07/19 12:23:52;;;;;;;9.68;4.13;;;38.90;32.10;;;;;;5081149;28;20127;-65
2023/07/19 12:26:21;;;;;;;8.50;4.13;;;39.30;32.00;;;;;;5077582;28;20055;-65
2023/07/19 12:28:47;;;;;;;8.25;4.30;;;39.40;33.80;;;;;;5095946;28;20098;-65
2023/07/19 12:31:13;;;;;;;9.32;3.78;;;39.60;32.10;;;;;;5095696;28;20490;-65
2023/07/19 12:33:40;;;;;;;8.70;4.75;;;39.70;30.20;;;;;;5081207;28;20020;-65
2023/07/19 12:36:08;;;;;;;9.43;4.45;;;39.50;33.10;;;;;;5072093;28;20029;-65
2023/07/19 12:38:40;;;;;;;12.73;4.45;;;39.20;36.60;;;;;;5066459;28;20132;-66